createdAt,value
2022-09-28T00:01:21.891Z,15.03
2022-09-28T00:03:52.220Z,14.97
2022-09-28T00:06:24.997Z,14.92
2022-09-28T00:08:54.052Z,14.89
2022-09-28T00:11:24.028Z,14.88
2022-09-28T00:13:56.626Z,14.86
2022-09-28T00:16:28.777Z,14.82
2022-09-28T00:18:57.086Z,14.80
2022-09-28T00:21:31.109Z,14.76
2022-09-28T00:24:13.096Z,14.74
2022-09-28T00:26:45.775Z,14.71
2022-09-28T00:29:18.658Z,14.70
2022-09-28T00:31:47.760Z,14.69
2022-09-28T00:34:16.450Z,14.69
2022-09-28T00:36:46.563Z,14.67
2022-09-28T00:39:16.014Z,14.58
2022-09-28T00:41:45.129Z,14.53
2022-09-28T00:44:25.419Z,14.49
2022-09-28T00:46:54.828Z,14.48
2022-09-28T00:49:32.655Z,14.48
2022-09-28T00:52:03.423Z,14.49
2022-09-28T00:54:31.942Z,14.51
2022-09-28T00:57:01.222Z,14.53
2022-09-28T00:59:29.524Z,14.56
2022-09-28T01:01:57.566Z,14.58
2022-09-28T01:04:29.744Z,14.59
2022-09-28T01:07:00.344Z,14.58
2022-09-28T01:09:29.797Z,14.57
2022-09-28T01:11:57.762Z,14.57
2022-09-28T01:14:26.248Z,14.55
2022-09-28T01:17:32.214Z,14.53
2022-09-28T01:20:40.934Z,14.50
2022-09-28T01:23:35.930Z,14.46
2022-09-28T01:26:41.999Z,14.43
2022-09-28T01:29:24.915Z,14.36
2022-09-28T01:32:25.142Z,14.31
2022-09-28T01:34:59.972Z,14.24
2022-09-28T01:37:37.570Z,14.18
2022-09-28T01:40:09.933Z,14.15
2022-09-28T01:42:41.240Z,14.14
2022-09-28T01:45:22.266Z,14.11
2022-09-28T01:47:57.298Z,14.10
2022-09-28T01:50:29.266Z,14.08
2022-09-28T01:53:06.336Z,14.06
2022-09-28T01:55:39.178Z,14.01
2022-09-28T01:58:15.103Z,13.97
2022-09-28T02:00:48.526Z,13.94
2022-09-28T02:03:40.210Z,13.91
2022-09-28T02:06:16.682Z,13.87
2022-09-28T02:08:54.045Z,13.82
2022-09-28T02:11:23.797Z,13.78
2022-09-28T02:14:01.552Z,13.75
2022-09-28T02:16:43.109Z,13.73
2022-09-28T02:19:18.136Z,13.72
2022-09-28T02:22:03.746Z,13.73
2022-09-28T02:24:44.390Z,13.74
2022-09-28T02:27:42.923Z,13.74
2022-09-28T02:30:11.612Z,13.73
2022-09-28T02:32:44.300Z,13.74
2022-09-28T02:35:14.709Z,13.73
2022-09-28T02:37:43.818Z,13.71
2022-09-28T02:40:26.671Z,13.70
2022-09-28T02:43:23.897Z,13.69
2022-09-28T02:46:16.807Z,13.69
2022-09-28T02:49:10.675Z,13.69
2022-09-28T02:51:57.028Z,13.68
2022-09-28T02:54:49.885Z,13.66
2022-09-28T02:57:51.742Z,13.61
2022-09-28T03:00:24.175Z,13.54
2022-09-28T03:02:57.925Z,13.53
2022-09-28T03:05:38.595Z,13.53
2022-09-28T03:08:32.677Z,13.54
2022-09-28T03:11:25.149Z,13.54
2022-09-28T03:13:53.904Z,13.51
2022-09-28T03:16:24.193Z,13.48
2022-09-28T03:18:52.529Z,13.45
2022-09-28T03:21:20.576Z,13.42
2022-09-28T03:23:48.954Z,13.38
2022-09-28T03:26:18.138Z,13.33
2022-09-28T03:28:46.328Z,13.27
2022-09-28T03:31:18.631Z,13.21
2022-09-28T03:33:46.671Z,13.16
2022-09-28T03:36:15.458Z,13.11
2022-09-28T03:38:43.431Z,13.06
2022-09-28T03:41:11.909Z,13.03
2022-09-28T03:43:41.925Z,13.00
2022-09-28T03:46:10.285Z,12.96
2022-09-28T03:48:42.476Z,12.90
2022-09-28T03:51:12.906Z,12.79
2022-09-28T03:53:40.886Z,12.72
2022-09-28T03:56:14.845Z,12.67
2022-09-28T03:58:43.156Z,12.61
2022-09-28T04:01:17.226Z,12.60
2022-09-28T04:03:47.089Z,12.60
2022-09-28T04:06:15.468Z,12.59
2022-09-28T04:08:43.707Z,12.59
2022-09-28T04:11:12.224Z,12.59
2022-09-28T04:13:40.398Z,12.59
2022-09-28T04:16:11.961Z,12.60
2022-09-28T04:18:42.787Z,12.61
2022-09-28T04:21:13.006Z,12.62
2022-09-28T04:23:48.925Z,12.67
2022-09-28T04:26:22.835Z,12.69
2022-09-28T04:29:09.484Z,12.72
2022-09-28T04:31:51.754Z,12.74
2022-09-28T04:34:22.630Z,12.76
2022-09-28T04:36:51.407Z,12.77
2022-09-28T04:39:20.203Z,12.79
2022-09-28T04:41:51.351Z,12.80
2022-09-28T04:44:19.721Z,12.82
2022-09-28T04:46:48.918Z,12.84
2022-09-28T04:49:32.152Z,12.87
2022-09-28T04:52:07.390Z,12.90
2022-09-28T04:54:36.183Z,12.92
2022-09-28T04:57:06.273Z,12.96
2022-09-28T04:59:34.475Z,13.01
2022-09-28T05:02:02.678Z,13.05
2022-09-28T05:04:49.459Z,13.07
2022-09-28T05:07:36.264Z,13.11
2022-09-28T05:10:06.896Z,13.17
2022-09-28T05:12:35.274Z,13.23
2022-09-28T05:15:05.095Z,13.26
2022-09-28T05:17:33.268Z,13.25
2022-09-28T05:20:09.219Z,13.25
2022-09-28T05:22:37.911Z,13.29
2022-09-28T05:25:07.314Z,13.33
2022-09-28T05:27:46.746Z,13.34
2022-09-28T05:30:31.003Z,13.31
2022-09-28T05:33:21.906Z,13.31
2022-09-28T05:36:01.078Z,13.34
2022-09-28T05:38:31.154Z,13.38
2022-09-28T05:41:02.080Z,13.39
2022-09-28T05:43:33.139Z,13.39
2022-09-28T05:46:01.286Z,13.40
2022-09-28T05:48:30.203Z,13.41
2022-09-28T05:51:01.447Z,13.43
2022-09-28T05:53:29.418Z,13.45
2022-09-28T05:55:59.843Z,13.45
2022-09-28T05:58:28.844Z,13.47
2022-09-28T06:00:57.598Z,13.48
2022-09-28T06:03:26.006Z,13.48
2022-09-28T06:05:55.197Z,13.51
2022-09-28T06:08:23.163Z,13.54
2022-09-28T06:11:02.311Z,13.60
2022-09-28T06:13:30.482Z,13.65
2022-09-28T06:15:58.452Z,13.70
2022-09-28T06:18:27.492Z,13.77
2022-09-28T06:21:14.562Z,13.86
2022-09-28T06:23:48.959Z,13.94
2022-09-28T06:26:18.849Z,14.02
2022-09-28T06:28:47.275Z,14.10
2022-09-28T06:31:16.073Z,14.17
2022-09-28T06:33:50.834Z,14.29
2022-09-28T06:36:20.972Z,14.36
2022-09-28T06:38:50.421Z,14.41
2022-09-28T06:41:18.591Z,14.50
2022-09-28T06:43:48.815Z,14.55
2022-09-28T06:46:38.322Z,14.65
2022-09-28T06:49:27.251Z,14.79
2022-09-28T06:52:13.836Z,14.92
2022-09-28T06:55:00.493Z,15.02
2022-09-28T06:57:40.415Z,15.10
2022-09-28T07:00:09.214Z,15.17
2022-09-28T07:02:37.667Z,15.20
2022-09-28T07:05:36.884Z,15.17
2022-09-28T07:08:26.057Z,15.04
2022-09-28T07:11:07.433Z,15.05
2022-09-28T07:14:22.401Z,15.15
2022-09-28T07:17:13.084Z,15.21
2022-09-28T07:19:43.028Z,15.22
2022-09-28T07:22:18.916Z,15.27
2022-09-28T07:24:48.902Z,15.28
2022-09-28T07:27:39.802Z,15.10
2022-09-28T07:30:40.367Z,15.00
2022-09-28T07:33:19.464Z,14.97
2022-09-28T07:35:55.738Z,15.00
2022-09-28T07:38:29.638Z,15.02
2022-09-28T07:41:14.319Z,14.97
2022-09-28T07:43:46.575Z,15.06
2022-09-28T07:46:15.120Z,15.18
2022-09-28T07:48:49.829Z,15.21
2022-09-28T07:51:38.133Z,15.32
2022-09-28T07:54:39.805Z,15.43
2022-09-28T07:57:29.461Z,15.53
2022-09-28T08:00:17.812Z,15.74
2022-09-28T08:02:48.502Z,15.89
2022-09-28T08:05:22.351Z,15.94
2022-09-28T08:07:50.422Z,15.93
2022-09-28T08:10:20.184Z,15.95
2022-09-28T08:13:08.708Z,16.00
2022-09-28T08:15:39.918Z,16.06
2022-09-28T08:18:31.760Z,16.06
2022-09-28T08:21:18.453Z,16.03
2022-09-28T08:23:46.849Z,16.07
2022-09-28T08:26:16.765Z,16.23
2022-09-28T08:28:47.976Z,16.43
2022-09-28T08:31:36.451Z,16.61
2022-09-28T08:34:22.859Z,16.73
2022-09-28T08:37:07.217Z,16.75
2022-09-28T08:39:55.458Z,16.84
2022-09-28T08:42:42.927Z,16.95
2022-09-28T08:45:35.191Z,17.00
2022-09-28T08:49:06.604Z,17.05
2022-09-28T08:52:03.940Z,17.14
2022-09-28T08:55:24.903Z,17.29
2022-09-28T08:57:54.940Z,17.45
2022-09-28T09:00:51.212Z,17.50
2022-09-28T09:03:34.326Z,17.54
2022-09-28T09:07:15.002Z,17.55
2022-09-28T09:10:11.645Z,17.58
2022-09-28T09:13:03.585Z,17.64
2022-09-28T09:15:54.191Z,17.72
2022-09-28T09:18:42.317Z,17.78
2022-09-28T09:21:42.339Z,17.87
2022-09-28T09:24:35.596Z,17.97
2022-09-28T09:27:13.298Z,18.07
2022-09-28T09:30:19.303Z,18.10
2022-09-28T09:32:57.059Z,18.10
2022-09-28T09:35:33.932Z,18.15
2022-09-28T09:39:20.649Z,18.25
2022-09-28T09:42:22.001Z,18.42
2022-09-28T09:45:54.981Z,18.59
2022-09-28T09:48:47.556Z,18.76
2022-09-28T09:51:56.175Z,18.80
2022-09-28T09:54:36.219Z,18.82
2022-09-28T09:57:13.309Z,18.78
2022-09-28T09:59:58.572Z,18.74
2022-09-28T10:02:45.267Z,18.71
2022-09-28T10:05:37.315Z,18.70
2022-09-28T10:08:08.362Z,18.75
2022-09-28T10:10:49.667Z,18.83
2022-09-28T10:13:19.494Z,18.83
2022-09-28T10:15:48.484Z,18.79
2022-09-28T10:18:21.956Z,18.73
2022-09-28T10:21:24.115Z,18.63
2022-09-28T10:24:32.541Z,18.53
2022-09-28T10:27:13.819Z,18.43
2022-09-28T10:29:54.073Z,18.33
2022-09-28T10:32:41.194Z,18.24
2022-09-28T10:35:31.893Z,18.18
2022-09-28T10:38:19.729Z,18.14
2022-09-28T10:40:56.016Z,18.10
2022-09-28T10:44:08.950Z,18.09
2022-09-28T10:47:02.357Z,18.12
2022-09-28T10:49:48.993Z,18.21
2022-09-28T10:52:36.720Z,18.32
2022-09-28T10:55:26.915Z,18.44
2022-09-28T10:57:55.401Z,18.65
2022-09-28T11:00:38.927Z,18.91
2022-09-28T11:03:25.284Z,19.17
2022-09-28T11:05:55.607Z,19.38
2022-09-28T11:08:32.594Z,19.77
2022-09-28T11:11:11.563Z,20.15
2022-09-28T11:13:47.311Z,20.58
2022-09-28T11:16:28.871Z,21.07
2022-09-28T11:18:59.193Z,21.57
2022-09-28T11:21:40.967Z,22.05
2022-09-28T11:24:18.886Z,22.36
2022-09-28T11:26:53.035Z,22.81
2022-09-28T11:29:26.635Z,23.25
2022-09-28T11:32:15.680Z,23.69
2022-09-28T11:35:19.817Z,24.28
2022-09-28T11:38:03.457Z,24.88
2022-09-28T11:41:09.214Z,25.09
2022-09-28T11:44:03.555Z,25.39
2022-09-28T11:46:38.126Z,26.04
2022-09-28T11:49:27.495Z,26.68
2022-09-28T11:52:01.608Z,27.34
2022-09-28T11:54:38.794Z,27.93
2022-09-28T11:57:22.326Z,28.51
2022-09-28T11:59:59.205Z,28.90
2022-09-28T12:02:40.021Z,29.14
2022-09-28T12:05:21.370Z,29.40
2022-09-28T12:07:56.871Z,29.56
2022-09-28T12:11:00.386Z,29.47
2022-09-28T12:13:51.825Z,29.43
2022-09-28T12:19:48.091Z,29.25
2022-09-28T12:22:25.532Z,28.73
2022-09-28T12:24:57.941Z,28.29
2022-09-28T12:27:45.371Z,27.78
2022-09-28T12:30:20.813Z,27.24
2022-09-28T12:33:01.076Z,26.94
2022-09-28T12:35:29.115Z,26.84
2022-09-28T12:38:20.741Z,26.67
2022-09-28T12:41:16.902Z,26.32
2022-09-28T12:44:02.275Z,25.94
2022-09-28T12:46:49.161Z,25.59
2022-09-28T12:50:36.675Z,25.31
2022-09-28T12:55:25.034Z,24.86
2022-09-28T12:57:59.638Z,24.69
2022-09-28T13:00:54.098Z,24.52
2022-09-28T13:03:49.721Z,24.31
2022-09-28T13:06:26.492Z,24.06
2022-09-28T13:09:20.292Z,23.87
2022-09-28T13:11:54.998Z,23.69
2022-09-28T13:15:03.308Z,23.49
2022-09-28T13:17:42.811Z,23.23
2022-09-28T13:20:38.710Z,23.09
2022-09-28T13:23:23.860Z,22.92
2022-09-28T13:26:05.130Z,22.78
2022-09-28T13:28:35.859Z,22.67
2022-09-28T13:31:05.754Z,22.57
2022-09-28T13:33:37.024Z,22.44
2022-09-28T13:36:25.788Z,22.32
2022-09-28T13:38:55.696Z,22.17
2022-09-28T13:41:35.698Z,22.04
2022-09-28T13:44:20.385Z,21.93
2022-09-28T13:47:10.294Z,21.84
2022-09-28T13:50:09.068Z,21.74
2022-09-28T13:53:09.178Z,21.62
2022-09-28T13:56:02.064Z,21.52
2022-09-28T13:58:32.793Z,21.43
2022-09-28T14:01:11.166Z,21.34
2022-09-28T14:04:19.336Z,21.25
2022-09-28T14:07:09.504Z,21.14
2022-09-28T14:09:47.000Z,21.04
2022-09-28T14:12:43.545Z,20.97
2022-09-28T14:15:30.001Z,20.88
2022-09-28T14:18:16.142Z,20.76
2022-09-28T14:20:58.346Z,20.66
2022-09-28T14:24:00.229Z,20.56
2022-09-28T14:26:41.948Z,20.47
2022-09-28T14:29:28.557Z,20.39
2022-09-28T14:31:59.139Z,20.31
2022-09-28T14:34:58.529Z,20.22
2022-09-28T14:37:56.316Z,20.15
2022-09-28T14:40:49.524Z,20.06
2022-09-28T14:43:45.718Z,19.98
2022-09-28T14:46:20.076Z,19.90
2022-09-28T14:48:52.907Z,19.84
2022-09-28T14:51:27.052Z,19.78
2022-09-28T14:54:01.381Z,19.71
2022-09-28T14:56:43.844Z,19.65
2022-09-28T14:59:20.570Z,19.57
2022-09-28T15:02:01.422Z,19.50
2022-09-28T15:04:30.941Z,19.43
2022-09-28T15:06:59.485Z,19.37
2022-09-28T15:09:36.416Z,19.33
2022-09-28T15:12:16.552Z,19.28
2022-09-28T15:14:49.813Z,19.27
2022-09-28T15:17:22.698Z,19.33
2022-09-28T15:19:51.384Z,19.47
2022-09-28T15:22:21.176Z,19.64
2022-09-28T15:25:02.253Z,19.79
2022-09-28T15:27:38.020Z,19.75
2022-09-28T15:30:32.207Z,19.68
2022-09-28T15:33:22.701Z,19.56
2022-09-28T15:36:02.856Z,19.44
2022-09-28T15:38:34.929Z,19.34
2022-09-28T15:41:05.813Z,19.24
2022-09-28T15:43:34.857Z,19.12
2022-09-28T15:46:21.635Z,19.01
2022-09-28T15:49:00.386Z,18.89
2022-09-28T15:51:29.995Z,18.75
2022-09-28T15:54:01.239Z,18.64
2022-09-28T15:56:30.540Z,18.53
2022-09-28T15:59:30.872Z,18.41
2022-09-28T16:02:08.263Z,18.27
2022-09-28T16:04:59.034Z,18.14
2022-09-28T16:07:35.840Z,17.99
2022-09-28T16:10:11.609Z,17.87
2022-09-28T16:12:55.126Z,17.75
2022-09-28T16:15:28.685Z,17.63
2022-09-28T16:18:02.765Z,17.52
2022-09-28T16:20:41.567Z,17.41
2022-09-28T16:23:09.840Z,17.27
2022-09-28T16:25:39.242Z,17.15
2022-09-28T16:28:07.417Z,17.03
2022-09-28T16:30:35.597Z,16.91
2022-09-28T16:33:06.867Z,16.80
2022-09-28T16:35:40.648Z,16.67
2022-09-28T16:38:14.436Z,16.56
2022-09-28T16:40:52.793Z,16.47
2022-09-28T16:43:27.744Z,16.36
2022-09-28T16:46:02.291Z,16.26
2022-09-28T16:48:32.341Z,16.18
2022-09-28T16:51:00.550Z,16.10
2022-09-28T16:53:47.425Z,16.00
2022-09-28T16:56:16.112Z,15.89
2022-09-28T16:58:48.181Z,15.81
2022-09-28T17:01:16.367Z,15.74
2022-09-28T17:03:47.094Z,15.67
2022-09-28T17:06:16.892Z,15.59
2022-09-28T17:08:45.385Z,15.52
2022-09-28T17:11:22.567Z,15.47
2022-09-28T17:13:52.479Z,15.40
2022-09-28T17:16:37.026Z,15.33
2022-09-28T17:19:19.792Z,15.26
2022-09-28T17:21:49.055Z,15.16
2022-09-28T17:24:18.073Z,15.08
2022-09-28T17:26:47.864Z,15.00
2022-09-28T17:29:16.235Z,14.90
2022-09-28T17:31:45.356Z,14.83
2022-09-28T17:34:16.262Z,14.77
2022-09-28T17:36:45.371Z,14.72
2022-09-28T17:39:19.206Z,14.64
2022-09-28T17:41:47.759Z,14.59
2022-09-28T17:44:16.501Z,14.54
2022-09-28T17:46:48.844Z,14.50
2022-09-28T17:49:17.515Z,14.47
2022-09-28T17:51:45.831Z,14.43
2022-09-28T17:54:16.999Z,14.38
2022-09-28T17:56:46.434Z,14.34
2022-09-28T17:59:17.636Z,14.28
2022-09-28T18:01:45.857Z,14.20
2022-09-28T18:04:39.640Z,14.11
2022-09-28T18:07:04.527Z,14.01
2022-09-28T18:09:32.495Z,13.93
2022-09-28T18:12:04.350Z,13.86
2022-09-28T18:14:32.935Z,13.83
2022-09-28T18:17:01.005Z,13.80
2022-09-28T18:19:32.190Z,13.77
2022-09-28T18:22:01.724Z,13.77
2022-09-28T18:24:32.684Z,13.76
2022-09-28T18:27:00.712Z,13.76
2022-09-28T18:29:33.147Z,13.76
2022-09-28T18:32:02.755Z,13.75
2022-09-28T18:34:31.235Z,13.75
2022-09-28T18:36:59.309Z,13.72
2022-09-28T18:39:27.373Z,13.73
2022-09-28T18:41:55.454Z,13.74
2022-09-28T18:44:24.040Z,13.74
2022-09-28T18:46:52.100Z,13.69
2022-09-28T18:49:21.618Z,13.63
2022-09-28T18:51:49.850Z,13.57
2022-09-28T18:54:18.165Z,13.55
2022-09-28T18:56:46.131Z,13.54
2022-09-28T18:59:14.884Z,13.51
2022-09-28T19:01:43.725Z,13.49
2022-09-28T19:04:12.092Z,13.46
2022-09-28T19:06:41.846Z,13.45
2022-09-28T19:09:10.894Z,13.42
2022-09-28T19:11:39.172Z,13.40
2022-09-28T19:14:10.968Z,13.37
2022-09-28T19:16:39.107Z,13.33
2022-09-28T19:19:07.377Z,13.29
2022-09-28T19:21:35.563Z,13.22
2022-09-28T19:24:04.458Z,13.17
2022-09-28T19:26:33.300Z,13.10
2022-09-28T19:29:03.146Z,13.03
2022-09-28T19:31:32.861Z,12.97
2022-09-28T19:34:01.037Z,12.93
2022-09-28T19:36:29.512Z,12.90
2022-09-28T19:39:03.354Z,12.87
2022-09-28T19:41:43.518Z,12.85
2022-09-28T19:44:26.299Z,12.82
2022-09-28T19:47:01.263Z,12.78
2022-09-28T19:49:33.146Z,12.75
2022-09-28T19:52:13.301Z,12.72
2022-09-28T19:54:55.958Z,12.69
2022-09-28T19:57:26.122Z,12.65
2022-09-28T19:59:59.230Z,12.63
2022-09-28T20:02:29.603Z,12.61
2022-09-28T20:04:57.763Z,12.59
2022-09-28T20:07:25.835Z,12.59
2022-09-28T20:09:53.810Z,12.54
2022-09-28T20:12:22.505Z,12.46
2022-09-28T20:14:50.565Z,12.41
2022-09-28T20:17:19.377Z,12.42
2022-09-28T20:19:48.139Z,12.43
2022-09-28T20:22:17.140Z,12.44
2022-09-28T20:24:45.211Z,12.44
2022-09-28T20:27:13.105Z,12.45
2022-09-28T20:29:43.151Z,12.46
2022-09-28T20:32:11.780Z,12.49
2022-09-28T20:34:39.730Z,12.52
2022-09-28T20:37:07.823Z,12.54
2022-09-28T20:39:35.896Z,12.57
2022-09-28T20:42:03.963Z,12.61
2022-09-28T20:44:32.038Z,12.63
2022-09-28T20:47:01.199Z,12.63
2022-09-28T20:49:29.206Z,12.64
2022-09-28T20:51:57.170Z,12.62
2022-09-28T20:54:25.754Z,12.62
2022-09-28T20:56:53.932Z,12.62
2022-09-28T20:59:25.906Z,12.60
2022-09-28T21:01:53.995Z,12.57
2022-09-28T21:04:21.914Z,12.54
2022-09-28T21:06:49.906Z,12.50
2022-09-28T21:09:18.081Z,12.45
2022-09-28T21:11:46.563Z,12.37
2022-09-28T21:14:14.527Z,12.31
2022-09-28T21:16:42.506Z,12.26
2022-09-28T21:19:10.463Z,12.23
2022-09-28T21:21:38.542Z,12.20
2022-09-28T21:24:07.145Z,12.15
2022-09-28T21:26:35.814Z,12.10
2022-09-28T21:29:07.156Z,12.07
2022-09-28T21:31:47.851Z,12.03
2022-09-28T21:34:20.680Z,11.98
2022-09-28T21:36:51.356Z,11.93
2022-09-28T21:39:20.441Z,11.90
2022-09-28T21:41:48.517Z,11.86
2022-09-28T21:44:16.674Z,11.82
2022-09-28T21:46:44.792Z,11.79
2022-09-28T21:49:14.468Z,11.77
2022-09-28T21:51:42.536Z,11.75
2022-09-28T21:54:12.111Z,11.72
2022-09-28T21:56:40.220Z,11.70
2022-09-28T21:59:08.292Z,11.68
2022-09-28T22:01:36.298Z,11.67
2022-09-28T22:04:04.329Z,11.67
2022-09-28T22:06:32.302Z,11.67
2022-09-28T22:09:00.351Z,11.67
2022-09-28T22:11:29.161Z,11.67
2022-09-28T22:13:59.806Z,11.66
2022-09-28T22:16:31.143Z,11.66
2022-09-28T22:18:59.993Z,11.69
2022-09-28T22:21:32.037Z,11.73
2022-09-28T22:24:02.830Z,11.78
2022-09-28T22:26:33.105Z,11.84
2022-09-28T22:29:07.786Z,11.87
2022-09-28T22:31:38.753Z,11.87
2022-09-28T22:34:09.018Z,11.86
2022-09-28T22:36:37.222Z,11.85
2022-09-28T22:39:05.214Z,11.83
2022-09-28T22:41:33.673Z,11.81
2022-09-28T22:44:01.944Z,11.79
2022-09-28T22:46:32.276Z,11.76
2022-09-28T22:49:00.860Z,11.73
2022-09-28T22:51:30.157Z,11.69
2022-09-28T22:53:58.540Z,11.65
2022-09-28T22:56:27.020Z,11.58
2022-09-28T22:58:55.501Z,11.52
2022-09-28T23:01:25.872Z,11.45
2022-09-28T23:03:55.060Z,11.39
2022-09-28T23:06:26.779Z,11.36
2022-09-28T23:08:55.025Z,11.32
2022-09-28T23:11:23.132Z,11.29
2022-09-28T23:13:52.744Z,11.25
2022-09-28T23:16:23.558Z,11.22
2022-09-28T23:18:53.280Z,11.17
2022-09-28T23:21:24.205Z,11.15
2022-09-28T23:24:01.743Z,11.13
2022-09-28T23:26:32.553Z,11.12
2022-09-28T23:29:00.625Z,11.11
2022-09-28T23:31:31.551Z,11.08
2022-09-28T23:34:05.983Z,11.04
2022-09-28T23:36:34.041Z,11.02
2022-09-28T23:39:03.385Z,10.99
2022-09-28T23:41:31.320Z,10.98
2022-09-28T23:43:59.160Z,10.96
2022-09-28T23:46:27.190Z,10.95
2022-09-28T23:48:55.234Z,10.94
2022-09-28T23:51:23.200Z,10.93
2022-09-28T23:53:51.278Z,10.92
2022-09-28T23:56:19.344Z,10.89
2022-09-28T23:58:47.184Z,10.89
